createdAt,value
2024-04-09T00:01:04.457Z,30.30
2024-04-09T00:03:32.702Z,30.20
2024-04-09T00:06:00.223Z,29.35
2024-04-09T00:08:30.074Z,29.95
2024-04-09T00:10:57.828Z,31.42
2024-04-09T00:13:26.767Z,30.10
2024-04-09T00:15:53.764Z,30.05
2024-04-09T00:18:20.770Z,29.40
2024-04-09T00:20:54.955Z,29.17
2024-04-09T00:23:24.210Z,29.40
2024-04-09T00:25:51.213Z,28.80
2024-04-09T00:28:18.406Z,28.42
2024-04-09T00:30:48.131Z,28.83
2024-04-09T00:33:16.678Z,28.88
2024-04-09T00:35:44.499Z,29.63
2024-04-09T00:38:15.990Z,29.00
2024-04-09T00:40:43.865Z,29.98
2024-04-09T00:43:10.895Z,28.90
2024-04-09T00:45:38.292Z,28.77
2024-04-09T00:48:05.651Z,28.30
2024-04-09T00:50:34.401Z,28.50
2024-04-09T00:53:01.367Z,28.00
2024-04-09T00:55:28.258Z,28.98
2024-04-09T00:57:55.268Z,30.65
2024-04-09T01:00:23.368Z,30.38
2024-04-09T01:02:50.562Z,29.53
2024-04-09T01:05:18.022Z,29.17
2024-04-09T01:07:45.054Z,28.00
2024-04-09T01:10:12.207Z,28.77
2024-04-09T01:12:39.219Z,30.35
2024-04-09T01:15:06.544Z,29.90
2024-04-09T01:17:34.797Z,30.58
2024-04-09T01:20:02.345Z,31.05
2024-04-09T01:22:32.642Z,29.85
2024-04-09T01:24:59.532Z,29.63
2024-04-09T01:27:26.895Z,28.93
2024-04-09T01:29:55.502Z,29.45
2024-04-09T01:32:22.812Z,29.15
2024-04-09T01:34:49.753Z,28.50
2024-04-09T01:37:19.220Z,27.95
2024-04-09T01:39:50.165Z,28.47
2024-04-09T01:42:17.214Z,27.65
2024-04-09T01:44:44.673Z,28.27
2024-04-09T01:47:12.259Z,28.20
2024-04-09T01:49:39.148Z,29.27
2024-04-09T01:52:06.295Z,28.80
2024-04-09T01:54:33.782Z,28.23
2024-04-09T01:57:00.848Z,28.88
2024-04-09T01:59:27.812Z,29.63
2024-04-09T02:01:54.734Z,27.65
2024-04-09T02:04:21.904Z,29.20
2024-04-09T02:06:50.037Z,28.25
2024-04-09T02:09:16.988Z,29.08
2024-04-09T02:11:43.947Z,29.15
2024-04-09T02:14:11.531Z,29.50
2024-04-09T02:16:38.458Z,29.67
2024-04-09T02:19:05.492Z,28.92
2024-04-09T02:21:32.770Z,28.17
2024-04-09T02:24:01.253Z,27.33
2024-04-09T02:26:30.392Z,28.05
2024-04-09T02:28:58.312Z,26.70
2024-04-09T02:31:25.571Z,29.45
2024-04-09T02:33:52.691Z,29.02
2024-04-09T02:36:19.794Z,29.60
2024-04-09T02:38:46.767Z,27.73
2024-04-09T02:41:18.481Z,26.40
2024-04-09T02:43:45.590Z,27.80
2024-04-09T02:46:12.509Z,27.92
2024-04-09T02:48:39.565Z,28.77
2024-04-09T02:51:06.851Z,28.00
2024-04-09T02:53:33.900Z,27.57
2024-04-09T02:56:01.578Z,27.08
2024-04-09T02:58:28.567Z,28.00
2024-04-09T03:00:59.317Z,27.95
2024-04-09T03:03:26.410Z,27.48
2024-04-09T03:05:53.502Z,27.10
2024-04-09T03:08:21.618Z,27.40
2024-04-09T03:10:48.680Z,27.25
2024-04-09T03:13:15.686Z,26.83
2024-04-09T03:15:43.049Z,26.77
2024-04-09T03:18:10.307Z,27.27
2024-04-09T03:20:37.345Z,26.30
2024-04-09T03:23:04.499Z,27.02
2024-04-09T03:25:31.512Z,25.42
2024-04-09T03:27:58.431Z,27.10
2024-04-09T03:30:25.433Z,25.97
2024-04-09T03:32:53.717Z,26.30
2024-04-09T03:35:20.708Z,26.88
2024-04-09T03:37:48.587Z,26.85
2024-04-09T03:40:15.681Z,26.75
2024-04-09T03:42:42.714Z,26.63
2024-04-09T03:45:12.160Z,26.27
2024-04-09T03:47:39.226Z,26.95
2024-04-09T03:50:06.948Z,27.05
2024-04-09T03:52:33.862Z,26.77
2024-04-09T03:55:00.973Z,26.00
2024-04-09T03:57:28.068Z,27.05
2024-04-09T03:59:55.039Z,26.17
2024-04-09T04:02:22.014Z,25.92
2024-04-09T04:04:49.057Z,25.90
2024-04-09T04:07:17.486Z,25.30
2024-04-09T04:09:44.483Z,25.80
2024-04-09T04:12:11.487Z,26.45
2024-04-09T04:14:38.390Z,26.35
2024-04-09T04:17:07.134Z,25.58
2024-04-09T04:19:34.202Z,25.97
2024-04-09T04:22:01.231Z,26.13
2024-04-09T04:24:30.521Z,27.10
2024-04-09T04:26:58.164Z,26.00
2024-04-09T04:29:25.279Z,26.58
2024-04-09T04:31:53.383Z,26.23
2024-04-09T04:34:20.383Z,26.15
2024-04-09T04:36:47.462Z,25.48
2024-04-09T04:39:14.537Z,26.15
2024-04-09T04:41:42.114Z,27.65
2024-04-09T04:44:09.028Z,26.63
2024-04-09T04:46:35.932Z,27.38
2024-04-09T04:49:02.969Z,26.23
2024-04-09T04:51:30.067Z,27.63
2024-04-09T04:53:57.234Z,27.50
2024-04-09T04:56:24.174Z,28.83
2024-04-09T04:58:51.565Z,27.80
2024-04-09T05:01:18.535Z,27.00
2024-04-09T05:03:45.550Z,25.92
2024-04-09T05:06:13.563Z,26.33
2024-04-09T05:08:40.508Z,25.57
2024-04-09T05:11:11.765Z,25.27
2024-04-09T05:13:38.725Z,25.92
2024-04-09T05:16:05.780Z,25.27
2024-04-09T05:18:32.905Z,25.50
2024-04-09T05:21:00.069Z,24.63
2024-04-09T05:23:27.310Z,24.98
2024-04-09T05:25:54.252Z,25.15
2024-04-09T05:28:21.164Z,24.92
2024-04-09T05:30:48.147Z,25.27
2024-04-09T05:33:15.571Z,23.73
2024-04-09T05:35:42.499Z,25.05
2024-04-09T05:38:09.402Z,24.30
2024-04-09T05:40:36.918Z,25.58
2024-04-09T05:43:04.487Z,24.83
2024-04-09T05:45:31.430Z,24.80
2024-04-09T05:47:58.561Z,24.00
2024-04-09T05:50:25.554Z,24.23
2024-04-09T05:52:52.472Z,23.42
2024-04-09T05:55:19.459Z,22.80
2024-04-09T05:57:46.393Z,22.77
2024-04-09T06:00:17.079Z,22.50
2024-04-09T06:02:48.793Z,20.83
2024-04-09T06:05:19.125Z,20.90
2024-04-09T06:07:46.433Z,19.83
2024-04-09T06:10:16.187Z,20.33
2024-04-09T06:12:43.300Z,19.73
2024-04-09T06:15:10.297Z,18.25
2024-04-09T06:17:37.312Z,18.13
2024-04-09T06:20:06.588Z,18.17
2024-04-09T06:22:34.072Z,17.23
2024-04-09T06:25:01.233Z,17.05
2024-04-09T06:27:28.403Z,16.75
2024-04-09T06:29:55.647Z,16.45
2024-04-09T06:32:22.914Z,15.55
2024-04-09T06:34:49.960Z,15.83
2024-04-09T06:37:17.356Z,14.60
2024-04-09T06:39:44.544Z,15.10
2024-04-09T06:42:11.753Z,14.15
2024-04-09T06:44:38.759Z,14.25
2024-04-09T06:47:06.727Z,14.13
2024-04-09T06:49:34.290Z,15.02
2024-04-09T06:52:01.441Z,13.32
2024-04-09T06:54:28.752Z,14.02
2024-04-09T06:56:56.196Z,14.05
2024-04-09T06:59:23.485Z,15.10
2024-04-09T07:01:50.482Z,17.42
2024-04-09T07:04:18.277Z,18.75
2024-04-09T07:06:45.748Z,18.65
2024-04-09T07:09:18.637Z,18.25
2024-04-09T07:11:49.018Z,17.50
2024-04-09T07:14:16.373Z,18.45
2024-04-09T07:16:47.869Z,17.98
2024-04-09T07:19:15.008Z,18.10
2024-04-09T07:21:42.134Z,17.70
2024-04-09T07:24:11.172Z,16.50
2024-04-09T07:26:38.359Z,16.83
2024-04-09T07:29:05.432Z,16.45
2024-04-09T07:31:32.481Z,15.80
2024-04-09T07:34:00.087Z,16.38
2024-04-09T07:36:27.110Z,15.50
2024-04-09T07:38:54.280Z,15.77
2024-04-09T07:41:24.996Z,15.98
2024-04-09T07:43:52.300Z,16.30
2024-04-09T07:46:20.356Z,15.77
2024-04-09T07:48:47.452Z,15.83
2024-04-09T07:51:14.694Z,14.93
2024-04-09T07:53:42.395Z,15.63
2024-04-09T07:56:14.265Z,15.05
2024-04-09T07:58:41.434Z,14.65
2024-04-09T08:01:08.746Z,14.87
2024-04-09T08:03:36.139Z,15.52
2024-04-09T08:06:05.482Z,14.40
2024-04-09T08:08:36.931Z,14.70
2024-04-09T08:11:10.390Z,14.10
2024-04-09T08:13:37.872Z,13.83
2024-04-09T08:16:05.864Z,13.35
2024-04-09T08:18:33.322Z,13.88
2024-04-09T08:21:02.134Z,15.20
2024-04-09T08:23:29.356Z,16.65
2024-04-09T08:25:56.274Z,14.60
2024-04-09T08:28:23.228Z,12.60
2024-04-09T08:30:50.517Z,11.10
2024-04-09T08:33:19.070Z,12.10
2024-04-09T08:35:47.096Z,13.85
2024-04-09T08:38:14.470Z,13.10
2024-04-09T08:40:41.739Z,10.98
2024-04-09T08:43:09.470Z,10.40
2024-04-09T08:45:36.962Z,10.77
2024-04-09T08:48:05.080Z,10.00
2024-04-09T08:50:33.506Z,10.33
2024-04-09T08:53:00.751Z,9.27
2024-04-09T08:55:27.854Z,10.13
2024-04-09T08:57:55.227Z,10.25
2024-04-09T09:00:22.515Z,10.93
2024-04-09T09:02:49.588Z,10.53
2024-04-09T09:05:20.666Z,10.25
2024-04-09T09:07:48.021Z,10.40
2024-04-09T09:10:14.930Z,10.25
2024-04-09T09:12:41.928Z,10.68
2024-04-09T09:15:10.283Z,9.23
2024-04-09T09:17:37.415Z,9.20
2024-04-09T09:20:11.277Z,10.80
2024-04-09T09:22:45.277Z,9.65
2024-04-09T09:25:25.431Z,8.63
2024-04-09T09:28:08.591Z,9.03
2024-04-09T09:30:42.942Z,8.75
2024-04-09T09:33:22.821Z,7.80
2024-04-09T09:35:50.915Z,9.05
2024-04-09T09:38:18.719Z,8.27
2024-04-09T09:40:47.886Z,9.43
2024-04-09T09:43:16.980Z,7.40
2024-04-09T09:45:46.473Z,7.18
2024-04-09T09:48:13.961Z,7.13
2024-04-09T09:50:43.837Z,7.07
2024-04-09T09:53:11.187Z,7.10
2024-04-09T09:55:38.346Z,7.18
2024-04-09T09:58:05.472Z,7.78
2024-04-09T10:00:33.530Z,7.25
2024-04-09T10:03:00.959Z,7.05
2024-04-09T10:05:32.910Z,6.23
2024-04-09T10:08:00.152Z,6.22
2024-04-09T10:10:27.597Z,7.07
2024-04-09T10:13:00.379Z,6.30
2024-04-09T10:15:28.932Z,7.28
2024-04-09T10:18:06.516Z,6.30
2024-04-09T10:20:37.676Z,5.93
2024-04-09T10:23:08.274Z,5.82
2024-04-09T10:25:37.813Z,6.55
2024-04-09T10:28:08.371Z,6.75
2024-04-09T10:30:35.958Z,8.33
2024-04-09T10:33:05.065Z,8.50
2024-04-09T10:35:32.770Z,6.63
2024-04-09T10:38:06.361Z,6.93
2024-04-09T10:40:36.763Z,7.28
2024-04-09T10:43:07.478Z,6.57
2024-04-09T10:45:41.714Z,7.18
2024-04-09T10:48:14.817Z,7.47
2024-04-09T10:50:44.390Z,7.03
2024-04-09T10:53:11.306Z,7.80
2024-04-09T10:55:38.231Z,7.40
2024-04-09T10:58:05.170Z,7.40
2024-04-09T11:00:32.230Z,6.72
2024-04-09T11:02:59.707Z,8.88
2024-04-09T11:05:26.712Z,7.70
2024-04-09T11:07:53.737Z,8.23
2024-04-09T11:10:24.242Z,7.55
2024-04-09T11:12:54.246Z,7.20
2024-04-09T11:15:21.815Z,7.63
2024-04-09T11:17:49.142Z,7.05
2024-04-09T11:20:16.890Z,8.00
2024-04-09T11:22:44.276Z,7.32
2024-04-09T11:25:14.943Z,7.78
2024-04-09T11:27:42.379Z,7.35
2024-04-09T11:30:09.991Z,6.75
2024-04-09T11:32:41.095Z,7.97
2024-04-09T11:35:22.330Z,8.25
2024-04-09T11:37:53.509Z,7.55
2024-04-09T11:40:26.898Z,5.97
2024-04-09T11:42:54.382Z,6.93
2024-04-09T11:45:25.113Z,6.63
2024-04-09T11:47:52.772Z,6.72
2024-04-09T11:50:19.893Z,6.57
2024-04-09T11:52:46.828Z,6.72
2024-04-09T11:55:16.726Z,8.05
2024-04-09T11:57:47.372Z,6.97
2024-04-09T12:00:15.322Z,7.00
2024-04-09T12:02:45.942Z,5.80
2024-04-09T12:05:14.943Z,6.90
2024-04-09T12:07:45.356Z,6.60
2024-04-09T12:10:12.522Z,5.73
2024-04-09T12:12:42.773Z,6.32
2024-04-09T12:15:13.679Z,5.80
2024-04-09T12:19:44.687Z,5.85
2024-04-09T12:22:15.859Z,5.82
2024-04-09T12:24:43.636Z,5.95
2024-04-09T12:27:11.077Z,5.10
2024-04-09T12:29:38.476Z,6.57
2024-04-09T12:32:07.381Z,7.95
2024-04-09T12:34:34.799Z,8.15
2024-04-09T12:37:02.233Z,7.68
2024-04-09T12:39:32.079Z,6.20
2024-04-09T12:42:02.414Z,6.20
2024-04-09T12:44:30.638Z,5.70
2024-04-09T12:46:57.981Z,6.00
2024-04-09T12:49:34.976Z,6.43
2024-04-09T12:52:10.670Z,5.70
2024-04-09T12:54:38.030Z,5.88
2024-04-09T12:57:06.043Z,5.57
2024-04-09T12:59:47.921Z,5.78
2024-04-09T13:02:22.907Z,6.00
2024-04-09T13:04:50.976Z,4.97
2024-04-09T13:07:19.122Z,5.38
2024-04-09T13:09:46.519Z,5.65
2024-04-09T13:12:14.308Z,4.70
2024-04-09T13:16:41.638Z,5.20
2024-04-09T13:17:29.554Z,5.67
2024-04-09T13:19:56.910Z,6.03
2024-04-09T13:22:24.996Z,5.93
2024-04-09T13:24:52.405Z,6.20
2024-04-09T13:27:19.688Z,6.00
2024-04-09T13:29:47.044Z,11.60
2024-04-09T13:32:16.802Z,8.35
2024-04-09T13:34:44.227Z,6.20
2024-04-09T13:37:11.632Z,5.22
2024-04-09T13:39:38.885Z,5.50
2024-04-09T13:42:06.373Z,5.30
2024-04-09T13:44:33.694Z,5.53
2024-04-09T13:47:01.272Z,5.32
2024-04-09T13:49:28.707Z,5.50
2024-04-09T13:51:56.103Z,5.63
2024-04-09T13:54:23.781Z,5.60
2024-04-09T13:56:53.101Z,5.20
2024-04-09T14:01:48.462Z,5.50
2024-04-09T14:04:16.836Z,5.10
2024-04-09T14:06:44.296Z,5.57
2024-04-09T14:09:11.652Z,5.30
2024-04-09T14:11:38.988Z,6.20
2024-04-09T14:14:08.540Z,6.10
2024-04-09T14:16:35.922Z,4.95
2024-04-09T14:19:05.899Z,5.40
2024-04-09T14:21:33.321Z,5.15
2024-04-09T14:24:00.772Z,7.57
2024-04-09T14:26:28.320Z,5.70
2024-04-09T14:28:56.196Z,5.05
2024-04-09T14:31:23.530Z,5.23
2024-04-09T14:33:52.509Z,4.57
2024-04-09T14:36:20.163Z,4.47
2024-04-09T14:38:47.424Z,4.28
2024-04-09T14:41:18.094Z,4.80
2024-04-09T14:46:21.413Z,5.30
2024-04-09T14:48:52.222Z,4.60
2024-04-09T14:51:20.899Z,6.72
2024-04-09T14:53:48.247Z,6.20
2024-04-09T14:56:15.608Z,9.55
2024-04-09T14:58:43.041Z,7.17
2024-04-09T15:01:11.616Z,8.05
2024-04-09T15:03:39.191Z,7.03
2024-04-09T15:06:06.866Z,5.75
2024-04-09T15:08:34.152Z,5.43
2024-04-09T15:11:04.426Z,4.47
2024-04-09T15:13:33.240Z,5.22
2024-04-09T15:16:01.125Z,4.82
2024-04-09T15:18:28.807Z,4.43
2024-04-09T15:20:56.291Z,4.88
2024-04-09T15:23:24.548Z,4.97
2024-04-09T15:25:55.301Z,4.40
2024-04-09T15:28:22.939Z,4.95
2024-04-09T15:30:54.047Z,4.60
2024-04-09T15:33:21.945Z,5.32
2024-04-09T15:35:56.124Z,5.20
2024-04-09T15:38:23.752Z,4.82
2024-04-09T15:40:53.848Z,4.60
2024-04-09T15:43:21.655Z,5.47
2024-04-09T15:45:49.198Z,5.05
2024-04-09T15:48:17.076Z,5.83
2024-04-09T15:50:44.555Z,4.72
2024-04-09T15:53:12.240Z,5.50
2024-04-09T15:55:40.313Z,4.57
2024-04-09T15:58:07.810Z,6.10
2024-04-09T16:00:36.065Z,9.03
2024-04-09T16:03:04.334Z,7.20
2024-04-09T16:05:32.650Z,6.95
2024-04-09T16:08:00.401Z,7.93
2024-04-09T16:10:27.869Z,8.73
2024-04-09T16:12:55.382Z,7.20
2024-04-09T16:15:23.307Z,6.90
2024-04-09T16:17:51.621Z,6.65
2024-04-09T16:20:19.338Z,6.10
2024-04-09T16:22:46.694Z,5.90
2024-04-09T16:25:15.425Z,5.60
2024-04-09T16:27:42.833Z,6.07
2024-04-09T16:30:14.972Z,6.07
2024-04-09T16:32:43.299Z,5.97
2024-04-09T16:35:12.114Z,5.53
2024-04-09T16:39:56.827Z,6.27
2024-04-09T16:42:24.472Z,7.07
2024-04-09T16:44:54.611Z,7.10
2024-04-09T16:47:22.321Z,7.30
2024-04-09T16:49:55.679Z,7.38
2024-04-09T16:52:23.410Z,7.30
2024-04-09T16:54:56.081Z,20.02
2024-04-09T16:57:32.985Z,24.38
2024-04-09T17:00:09.321Z,27.27
2024-04-09T17:02:37.263Z,26.70
2024-04-09T17:05:09.793Z,32.70
2024-04-09T17:07:37.656Z,34.38
2024-04-09T17:10:12.314Z,34.38
2024-04-09T17:12:42.310Z,29.55
2024-04-09T17:15:12.993Z,25.10
2024-04-09T17:17:40.834Z,25.03
2024-04-09T17:20:12.346Z,26.50
2024-04-09T17:22:39.986Z,27.67
2024-04-09T17:25:12.721Z,17.05
2024-04-09T17:27:40.927Z,19.70
2024-04-09T17:30:12.867Z,18.53
2024-04-09T17:32:40.907Z,18.23
2024-04-09T17:35:12.496Z,20.33
2024-04-09T17:37:40.606Z,20.80
2024-04-09T17:40:14.011Z,22.23
2024-04-09T17:42:41.619Z,23.27
2024-04-09T17:45:12.845Z,23.55
2024-04-09T17:47:40.600Z,24.65
2024-04-09T17:50:11.064Z,24.25
2024-04-09T17:52:39.206Z,24.77
2024-04-09T17:55:09.750Z,25.80
2024-04-09T17:57:39.984Z,25.80
2024-04-09T18:00:14.320Z,26.17
2024-04-09T18:02:43.275Z,25.25
2024-04-09T18:05:16.727Z,25.17
2024-04-09T18:07:44.564Z,23.43
2024-04-09T18:10:15.290Z,24.67
2024-04-09T18:12:45.894Z,24.52
2024-04-09T18:15:16.131Z,23.50
2024-04-09T18:17:44.052Z,24.63
2024-04-09T18:20:15.522Z,23.57
2024-04-09T18:22:43.245Z,24.52
2024-04-09T18:25:13.575Z,24.13
2024-04-09T18:27:41.210Z,24.50
2024-04-09T18:30:14.638Z,25.48
2024-04-09T18:32:42.540Z,23.87
2024-04-09T18:35:13.015Z,24.05
2024-04-09T18:37:40.641Z,22.95
2024-04-09T18:40:11.607Z,22.80
2024-04-09T18:42:39.263Z,22.75
2024-04-09T18:45:11.996Z,21.70
2024-04-09T18:47:42.609Z,22.08
2024-04-09T18:50:13.113Z,22.13
2024-04-09T18:52:40.787Z,21.95
2024-04-09T18:55:11.033Z,21.75
2024-04-09T18:57:38.689Z,21.97
2024-04-09T19:00:09.880Z,21.17
2024-04-09T19:02:37.517Z,21.45
2024-04-09T19:05:10.557Z,20.80
2024-04-09T19:07:38.430Z,22.17
2024-04-09T19:10:09.386Z,21.43
2024-04-09T19:12:37.071Z,21.50
2024-04-09T19:15:07.955Z,22.02
2024-04-09T19:17:35.693Z,22.30
2024-04-09T19:20:06.498Z,23.02
2024-04-09T19:22:37.115Z,22.00
2024-04-09T19:25:07.839Z,23.67
2024-04-09T19:27:35.557Z,23.45
2024-04-09T19:30:06.640Z,23.73
2024-04-09T19:32:34.665Z,23.73
2024-04-09T19:35:08.199Z,23.23
2024-04-09T19:37:38.473Z,23.67
2024-04-09T19:40:10.342Z,24.27
2024-04-09T19:42:38.404Z,23.55
2024-04-09T19:45:10.174Z,24.40
2024-04-09T19:47:38.118Z,22.77
2024-04-09T19:50:09.332Z,24.02
2024-04-09T19:52:39.753Z,24.30
2024-04-09T19:55:10.297Z,23.25
2024-04-09T19:57:38.048Z,23.15
2024-04-09T20:00:11.305Z,24.30
2024-04-09T20:02:42.454Z,23.30
2024-04-09T20:05:12.941Z,23.00
2024-04-09T20:07:43.512Z,23.92
2024-04-09T20:10:13.781Z,23.60
2024-04-09T20:12:41.445Z,23.87
2024-04-09T20:15:11.629Z,23.95
2024-04-09T20:17:39.455Z,24.33
2024-04-09T20:20:11.759Z,24.20
2024-04-09T20:22:39.530Z,24.25
2024-04-09T20:25:12.445Z,24.03
2024-04-09T20:27:41.125Z,24.15
2024-04-09T20:30:13.030Z,24.13
2024-04-09T20:32:40.860Z,22.80
2024-04-09T20:35:11.117Z,24.08
2024-04-09T20:37:38.780Z,23.43
2024-04-09T20:40:13.844Z,23.48
2024-04-09T20:42:42.118Z,24.45
2024-04-09T20:45:12.342Z,23.65
2024-04-09T20:47:41.128Z,23.67
2024-04-09T20:50:11.508Z,23.87
2024-04-09T20:52:39.440Z,23.50
2024-04-09T20:55:12.390Z,23.85
2024-04-09T20:57:39.968Z,23.77
2024-04-09T21:00:11.787Z,24.42
2024-04-09T21:02:39.506Z,24.57
2024-04-09T21:05:09.866Z,25.13
2024-04-09T21:07:37.535Z,23.40
2024-04-09T21:10:08.534Z,23.80
2024-04-09T21:12:40.086Z,24.15
2024-04-09T21:15:11.730Z,23.27
2024-04-09T21:17:39.680Z,22.83
2024-04-09T21:20:10.438Z,24.13
2024-04-09T21:22:38.204Z,23.23
2024-04-09T21:25:08.945Z,23.85
2024-04-09T21:27:39.114Z,23.87
2024-04-09T21:30:13.326Z,24.10
2024-04-09T21:32:41.377Z,23.80
2024-04-09T21:35:13.214Z,24.27
2024-04-09T21:37:42.368Z,24.17
2024-04-09T21:40:13.615Z,24.70
2024-04-09T21:42:44.274Z,24.85
2024-04-09T21:45:14.473Z,25.85
2024-04-09T21:47:42.342Z,24.70
2024-04-09T21:50:13.447Z,25.52
2024-04-09T21:52:41.099Z,24.77
2024-04-09T21:55:11.598Z,25.83
2024-04-09T21:57:39.266Z,25.63
2024-04-09T22:00:21.855Z,26.02
2024-04-09T22:02:49.887Z,23.25
2024-04-09T22:05:20.845Z,24.70
2024-04-09T22:07:48.663Z,21.67
2024-04-09T22:10:18.821Z,23.17
2024-04-09T22:12:46.868Z,21.20
2024-04-09T22:15:19.563Z,20.83
2024-04-09T22:17:47.408Z,18.90
2024-04-09T22:20:17.984Z,19.33
2024-04-09T22:22:45.686Z,18.55
2024-04-09T22:25:15.742Z,17.05
2024-04-09T22:27:45.188Z,17.92
2024-04-09T22:30:15.431Z,18.40
2024-04-09T22:32:50.484Z,17.95
2024-04-09T22:35:21.586Z,18.70
2024-04-09T22:37:52.464Z,17.40
2024-04-09T22:40:22.837Z,18.20
2024-04-09T22:42:50.907Z,18.03
2024-04-09T22:45:21.087Z,18.90
2024-04-09T22:47:51.426Z,19.70
2024-04-09T22:50:22.752Z,19.98
2024-04-09T22:52:50.477Z,20.23
2024-04-09T22:55:20.666Z,20.50
2024-04-09T22:57:48.237Z,21.38
2024-04-09T23:00:18.635Z,21.38
2024-04-09T23:02:46.446Z,22.48
2024-04-09T23:05:19.530Z,22.98
2024-04-09T23:07:47.352Z,23.23
2024-04-09T23:10:18.345Z,23.90
2024-04-09T23:12:47.346Z,26.00
2024-04-09T23:15:18.040Z,27.20
2024-04-09T23:17:46.548Z,28.48
2024-04-09T23:20:19.572Z,27.70
2024-04-09T23:22:48.924Z,28.15
2024-04-09T23:25:19.244Z,29.65
2024-04-09T23:27:46.944Z,30.85
2024-04-09T23:30:17.552Z,28.98
2024-04-09T23:32:45.472Z,30.13
2024-04-09T23:35:15.894Z,29.25
2024-04-09T23:37:46.087Z,30.77
2024-04-09T23:40:17.592Z,29.70
2024-04-09T23:42:45.201Z,28.27
2024-04-09T23:45:15.352Z,27.73
2024-04-09T23:47:43.110Z,25.88
2024-04-09T23:50:13.479Z,25.65
2024-04-09T23:52:41.439Z,25.15
2024-04-09T23:55:14.320Z,23.80
2024-04-09T23:57:41.951Z,21.40
